KSLB/SLB METAR and TAF weather

Enter ICAO airport designator
Station Type Date Time Source
KSLB METAR 2019/11/18 11:35 UTC NOAA

KSLB 181135Z AUTO 15009KT 9SM BKN090 BKN120 M00/M00 A2972 RMK AO2


Station Type Date Time Source
KSLB Decoded METAR 2019/11/18 11:35 UTC NOAA

Storm Lake, IA, United States (KSLB) 42-36N 095-14W
Nov 18, 2019 - 06:35 AM EST / 2019.11.18 1135 UTC
Wind: from the SSE (150 degrees) at 10 MPH (9 KT):0
Visibility: 9 mile(s):0
Sky conditions: mostly cloudy
Temperature: 32 F (0 C)
Windchill: 23 F (-5 C):1
Dew Point: 32 F (0 C)
Relative Humidity: 100%
Pressure (altimeter): 29.72 in. Hg (1006 hPa)
ob: KSLB 181135Z AUTO 15009KT 9SM BKN090 BKN120 M00/M00 A2972 RMK AO2
cycle: 11

Station Type Date Time Source
KSLB TAF UTC NOAA

Error!

Example: see airport list